Weather observations for the past three days for
Vavau International Airport
Imperial (Metric)
Date Time (+13) Wind (mph) Vis. (mi.) Weather Sky Cond. Temperature (ºF) Relative Humidity Wind Chill (°F) Heat Index (°F) Pressure Precipitation (in)
Air Dwpt 6 hour altimeter (in) sea level (mb) 1 hr 3 hr 6 hr
Max. Min.
05 12:00 E 14 0.00 Light Rain SCT005 BKN016TCU OVC100 75.2 71.6 89% 75 0 0.0
05 11:00 E 13 0.00 Overcast SCT006 SCT015TCU OVC100 77 69.8 79% 79 0 0.0
05 10:00 SE 14 0.00 Overcast SCT008 BKN016TCU OVC110 78.8 71.6 79% 82 0 0.0
05 09:00 SE 12 0.00 Mostly Cloudy SCT008 SCT015TCU BKN130 78.8 69.8 74% 81 0 0.0
05 08:00 SE 12 0.00 Mostly Cloudy FEW015TCU SCT035 BKN130 77 68 74% 79 0 0.0
05 07:00 SE 10 0.00 Overcast FEW008 SCT016TCU OVC130 75.2 69.8 83% 75 0 0.0
05 06:00 SE 7 0.00 Overcast FEW008 SCT015TCU OVC110 73.4 69.8 89% 0 0.0
05 05:00 S 7 0.00 Overcast FEW007 SCT016 OVC110 73.4 69.8 89% 0 0.0
05 04:00 SE 10 0.00 Overcast FEW007 BKN016TCU OVC110 75.2 71.6 89% 75 0 0.0
05 03:00 SE 10 0.00 Overcast FEW007 BKN016TCU OVC110 75.2 71.6 89% 75 0 0.0
05 01:00 SE 8 0.00 Overcast SCT007 BKN016TCU OVC110 77 69.8 79% 79 0 0.0
04 19:00 SE 6 0.00 Overcast FEW015TCU SCT040 OVC110 73.4 68 83% 0 0.0
04 18:00 SE 10 0.00 Overcast FEW015TCU SCT040 OVC110 75.2 71.6 89% 75 0 0.0
04 17:00 SE 5 0.00 Light Showers Rain SCT016TCU BKN040 OVC110 77 71.6 83% 78 0 0.0
04 16:00 SE 5 0.00 Light Rain SCT016TCU BKN040 OVC110 77 71.6 83% 78 0 0.0
04 15:00 S 6 0.00 Overcast SCT016TCU BKN040 OVC110 77 71.6 83% 78 0 0.0
04 14:00 SE 6 0.00 Overcast SCT015TCU BKN040 OVC110 77 71.6 83% 78 0 0.0
04 13:00 SE 7 0.00 Overcast SCT015TCU BKN035 OVC110 77 69.8 79% 79 0 0.0
04 12:00 SE 7 0.00 Overcast SCT015TCU BKN040 OVC110 77 69.8 79% 79 0 0.0
04 11:00 SE 6 0.00 Light Showers Rain FEW007 BKN016TCU OVC100 77 69.8 79% 79 0 0.0
04 10:00 SE 6 0.00 Overcast SCT015TCU BKN035 OVC100 75.2 71.6 89% 75 0 0.0
04 09:00 SE 6 0.00 Light Showers Rain SCT015TCU BKN036 OVC100 77 68 74% 79 0 0.0
04 07:00 SE 8 0.00 Overcast SCT007 BKN016TCU OVC110 77 69.8 79% 79 0 0.0
04 06:00 E 10 0.00 Mostly Cloudy FEW015TCU SCT040 BKN290 77 68 74% 79 0 0.0
04 05:00 E 12 0.00 Mostly Cloudy FEW015TCU SCT040 BKN280 77 68 74% 79 0 0.0
04 04:00 E 13 0.00 Mostly Cloudy FEW015 SCT040 BKN270 77 68 74% 79 0 0.0
04 03:00 E 13 0.00 Mostly Cloudy FEW014TCU BKN280 75.2 68 78% 76 0 0.0
04 02:00 E 12 0.00 Mostly Cloudy FEW015TCU BKN270 77 68 74% 79 0 0.0
04 01:00 E 12 0.00 Mostly Cloudy FEW015 BKN270 77 68 74% 79 0 0.0
03 19:00 S 15 0.00 Overcast SCT007 BKN016TCU OVC110 77 69.8 79% 79 0 0.0
03 18:00 SE 15 0.00 Overcast SCT007 BKN016TCU OVC110 77 71.6 83% 78 0 0.0
03 17:00 SE 15 0.00 Light Rain SCT006 BKN016TCU OVC100 77 73.4 89% 78 0 0.0
03 16:00 SE 16 0.00 Overcast SCT006 BKN015TCU OVC110 78.8 73.4 84% 82 0 0.0
03 14:00 SE 15 0.00 Mostly Cloudy SCT008 SCT015TCU BKN260 80.6 73.4 79% 85 0 0.0
03 13:00 E 16 0.00 Mostly Cloudy FEW009 SCT015TCU BKN280 80.6 71.6 74% 85 0 0.0
03 12:00 SE 15 0.00 Mostly Cloudy FEW009 SCT015TCU BKN270 78.8 71.6 79% 82 0 0.0
03 11:00 SE 15 0.00 Mostly Cloudy SCT007 SCT015TCU BKN110 78.8 77 94% 83 0 0.0
03 10:00 SE 13 0.00 Mostly Cloudy FEW009 SCT015TCU BKN110 77 77 100% 78 0 0.0
03 09:00 SE 12 0.00 Light Rain FEW008 SCT016TCU OVC130 80.6 77 89% 87 0 0.0
03 08:00 SE 10 0.00 Overcast FEW008 SCT016TCU OVC130 78.8 75.2 89% 82 0 0.0
03 07:00 SE 10 0.00 Light Rain SCT007 BKN016TCU OVC110 77 75.2 94% 78 0 0.0
03 06:00 S 10 0.00 Overcast FEW008 BKN016TCU OVC110 75.2 73.4 94% 74 0 0.0
03 05:00 SE 9 0.00 Overcast SCT007 BKN016TCU OVC110 75.2 73.4 94% 74 0 0.0
03 04:00 SE 8 0.00 Overcast SCT008 BKN016TCU OVC100 77 75.2 94% 78 0 0.0
03 03:00 SE 8 0.00 Mostly Cloudy FEW008 BKN017 BKN130 77 75.2 94% 78 0 0.0
03 02:00 SE 7 0.00 Mostly Cloudy SCT017 BKN130 78.8 75.2 89% 82 0 0.0
03 01:00 S 9 0.00 Light Rain SCT007 BKN016TCU OVC110 78.8 75.2 89% 82 0 0.0
02 19:00 SE 7 0.00 Mostly Cloudy SCT007 BKN016TCU BKN130 78.8 73.4 84% 82 0 0.0
02 18:00 SE 9 0.00 Mostly Cloudy FEW007 BKN016TCU BKN130 78.8 73.4 84% 82 0 0.0
02 17:00 SE 8 0.00 Mostly Cloudy FEW007 BKN016TCU BKN130 78.8 73.4 84% 82 0 0.0
02 16:00 S 8 0.00 Mostly Cloudy FEW006 SCT016TCU BKN130 78.8 73.4 84% 82 0 0.0
02 15:00 SE 7 0.00 Mostly Cloudy FEW007 BKN016TCU BKN130 80.6 73.4 79% 85 0 0.0
Date Time (+13) Wind (mph) Vis. (mi.) Weather Sky Cond. Air Dwpt Max. Min. Relative Humidity Wind Chill (°F) Heat Index (°F) altimeter (in) sea level (mb) 1 hr 3 hr 6 hr
6 hour
Temperature (ºF) Pressure Precipitation (in)